createdAt,value
2023-04-16T00:00:46.341Z,82.50
2023-04-16T00:03:13.273Z,82.40
2023-04-16T00:05:40.239Z,82.70
2023-04-16T00:08:07.484Z,84.40
2023-04-16T00:10:37.305Z,84.50
2023-04-16T00:13:03.972Z,84.50
2023-04-16T00:15:30.582Z,83.80
2023-04-16T00:17:57.210Z,83.30
2023-04-16T00:20:23.885Z,83.20
2023-04-16T00:22:51.210Z,83.00
2023-04-16T00:25:17.831Z,82.90
2023-04-16T00:27:44.468Z,82.90
2023-04-16T00:30:11.317Z,82.90
2023-04-16T00:32:37.966Z,82.90
2023-04-16T00:35:05.020Z,83.20
2023-04-16T00:37:32.311Z,83.10
2023-04-16T00:39:58.979Z,82.90
2023-04-16T00:42:25.699Z,82.80
2023-04-16T00:44:52.313Z,83.30
2023-04-16T00:47:20.436Z,83.20
2023-04-16T00:49:47.632Z,83.00
2023-04-16T00:52:14.324Z,82.90
2023-04-16T00:54:41.173Z,83.50
2023-04-16T00:57:07.940Z,83.50
2023-04-16T00:59:34.702Z,83.60
2023-04-16T01:02:01.658Z,83.50
2023-04-16T01:04:30.895Z,83.30
2023-04-16T01:06:57.702Z,83.20
2023-04-16T01:09:24.379Z,83.10
2023-04-16T01:11:51.003Z,83.10
2023-04-16T01:14:17.632Z,83.10
2023-04-16T01:16:44.282Z,83.20
2023-04-16T01:19:11.179Z,83.00
2023-04-16T01:21:37.999Z,82.90
2023-04-16T01:24:05.490Z,82.90
2023-04-16T01:26:32.262Z,82.90
2023-04-16T01:29:00.004Z,83.00
2023-04-16T01:31:26.839Z,82.90
2023-04-16T01:33:53.965Z,82.90
2023-04-16T01:36:20.662Z,82.90
2023-04-16T01:38:47.446Z,82.80
2023-04-16T01:41:14.073Z,82.70
2023-04-16T01:43:42.426Z,82.80
2023-04-16T01:46:20.351Z,82.70
2023-04-16T01:48:47.284Z,82.90
2023-04-16T01:51:13.916Z,82.60
2023-04-16T01:53:40.709Z,82.80
2023-04-16T01:56:07.547Z,82.90
2023-04-16T01:58:34.636Z,82.80
2023-04-16T02:01:01.404Z,82.80
2023-04-16T02:03:28.399Z,82.80
2023-04-16T02:05:55.630Z,82.90
2023-04-16T02:08:22.468Z,82.80
2023-04-16T02:10:50.250Z,82.70
2023-04-16T02:13:17.373Z,82.70
2023-04-16T02:15:47.975Z,82.70
2023-04-16T02:18:15.408Z,82.80
2023-04-16T02:20:47.099Z,82.80
2023-04-16T02:23:17.241Z,82.70
2023-04-16T02:25:47.356Z,82.60
2023-04-16T02:28:16.303Z,82.80
2023-04-16T02:30:43.498Z,82.70
2023-04-16T02:33:12.128Z,82.80
2023-04-16T02:35:40.035Z,82.70
2023-04-16T02:38:07.423Z,82.90
2023-04-16T02:40:34.088Z,82.80
2023-04-16T02:43:00.919Z,82.60
2023-04-16T02:45:27.693Z,82.80
2023-04-16T02:47:54.401Z,82.70
2023-04-16T02:50:21.126Z,82.60
2023-04-16T02:52:48.526Z,82.70
2023-04-16T02:55:15.405Z,82.70
2023-04-16T02:57:42.526Z,82.70
2023-04-16T03:00:09.797Z,83.10
2023-04-16T03:02:36.583Z,82.80
2023-04-16T03:05:03.861Z,82.80
2023-04-16T03:07:30.665Z,82.70
2023-04-16T03:09:57.352Z,83.30
2023-04-16T03:12:24.015Z,84.50
2023-04-16T03:14:52.460Z,84.20
2023-04-16T03:17:19.194Z,83.80
2023-04-16T03:19:46.028Z,83.40
2023-04-16T03:22:12.698Z,83.30
2023-04-16T03:24:39.364Z,83.10
2023-04-16T03:27:06.043Z,83.10
2023-04-16T03:29:32.680Z,83.00
2023-04-16T03:31:59.381Z,82.90
2023-04-16T03:34:26.042Z,82.90
2023-04-16T03:36:52.713Z,82.90
2023-04-16T03:39:19.379Z,82.80
2023-04-16T03:41:46.182Z,82.80
2023-04-16T03:44:12.847Z,82.70
2023-04-16T03:46:39.624Z,82.70
2023-04-16T03:49:06.297Z,82.80
2023-04-16T03:51:33.058Z,82.70
2023-04-16T03:53:59.694Z,82.70
2023-04-16T03:56:26.305Z,82.80
2023-04-16T03:58:52.943Z,82.70
2023-04-16T04:01:19.579Z,82.80
2023-04-16T04:03:46.614Z,82.90
2023-04-16T04:06:13.466Z,82.80
2023-04-16T04:08:40.105Z,82.80
2023-04-16T04:11:06.735Z,82.70
2023-04-16T04:13:33.342Z,82.80
2023-04-16T04:15:59.995Z,82.70
2023-04-16T04:18:26.725Z,82.80
2023-04-16T04:20:53.400Z,82.80
2023-04-16T04:23:20.155Z,82.90
2023-04-16T04:25:46.990Z,82.90
2023-04-16T04:28:13.782Z,82.70
2023-04-16T04:30:40.441Z,82.90
2023-04-16T04:33:07.262Z,82.80
2023-04-16T04:35:34.055Z,82.90
2023-04-16T04:38:02.799Z,83.00
2023-04-16T04:40:29.544Z,82.70
2023-04-16T04:42:56.184Z,82.80
2023-04-16T04:45:25.459Z,83.00
2023-04-16T04:47:55.654Z,82.80
2023-04-16T04:50:22.701Z,82.90
2023-04-16T04:52:49.321Z,82.70
2023-04-16T04:55:16.336Z,83.00
2023-04-16T04:57:43.033Z,82.90
2023-04-16T05:00:10.161Z,82.80
2023-04-16T05:02:37.443Z,82.80
2023-04-16T05:05:05.371Z,82.80
2023-04-16T05:07:32.228Z,82.80
2023-04-16T05:09:58.872Z,82.90
2023-04-16T05:12:25.570Z,82.90
2023-04-16T05:14:52.219Z,82.90
2023-04-16T05:17:18.927Z,82.90
2023-04-16T05:19:45.723Z,82.90
2023-04-16T05:22:12.640Z,82.90
2023-04-16T05:24:39.273Z,82.90
2023-04-16T05:27:06.494Z,83.00
2023-04-16T05:29:33.140Z,82.90
2023-04-16T05:32:00.181Z,82.90
2023-04-16T05:34:26.807Z,82.90
2023-04-16T05:36:53.575Z,82.90
2023-04-16T05:39:20.411Z,82.90
2023-04-16T05:41:47.138Z,83.00
2023-04-16T05:44:15.197Z,83.00
2023-04-16T05:46:41.891Z,83.00
2023-04-16T05:49:08.820Z,83.00
2023-04-16T05:51:36.379Z,83.00
2023-04-16T05:54:03.106Z,83.00
2023-04-16T05:56:29.728Z,83.00
2023-04-16T05:58:56.346Z,83.10
2023-04-16T06:01:23.367Z,83.00
2023-04-16T06:03:50.167Z,83.00
2023-04-16T06:06:16.905Z,83.00
2023-04-16T06:08:43.558Z,83.00
2023-04-16T06:11:10.369Z,83.00
2023-04-16T06:13:37.410Z,83.00
2023-04-16T06:16:04.282Z,83.00
2023-04-16T06:18:31.211Z,83.00
2023-04-16T06:20:59.296Z,83.00
2023-04-16T06:23:26.019Z,83.00
2023-04-16T06:25:52.716Z,83.00
2023-04-16T06:28:19.343Z,83.00
2023-04-16T06:30:47.211Z,83.00
2023-04-16T06:33:13.924Z,83.00
2023-04-16T06:35:40.875Z,83.10
2023-04-16T06:38:07.556Z,83.20
2023-04-16T06:40:34.362Z,83.20
2023-04-16T06:43:01.200Z,83.30
2023-04-16T06:45:27.801Z,83.20
2023-04-16T06:47:54.520Z,83.20
2023-04-16T06:50:23.241Z,83.20
2023-04-16T06:52:50.028Z,83.20
2023-04-16T06:55:16.649Z,83.20
2023-04-16T06:57:43.472Z,83.30
2023-04-16T07:00:10.596Z,83.30
2023-04-16T07:02:37.430Z,83.20
2023-04-16T07:05:04.444Z,83.20
2023-04-16T07:07:31.288Z,83.30
2023-04-16T07:09:58.784Z,83.30
2023-04-16T07:12:25.632Z,83.20
2023-04-16T07:14:52.427Z,83.30
2023-04-16T07:17:19.093Z,83.30
2023-04-16T07:19:46.468Z,83.20
2023-04-16T07:22:13.110Z,83.30
2023-04-16T07:24:39.752Z,83.20
2023-04-16T07:27:06.382Z,83.30
2023-04-16T07:29:33.043Z,83.20
2023-04-16T07:31:59.813Z,83.20
2023-04-16T07:34:26.586Z,83.20
2023-04-16T07:36:53.225Z,83.30
2023-04-16T07:39:19.816Z,83.30
2023-04-16T07:41:46.475Z,83.20
2023-04-16T07:44:13.211Z,83.30
2023-04-16T07:46:46.955Z,83.20
2023-04-16T07:49:15.691Z,83.20
2023-04-16T07:51:42.592Z,83.20
2023-04-16T07:54:10.142Z,83.20
2023-04-16T07:56:36.814Z,83.30
2023-04-16T07:59:18.429Z,83.30
2023-04-16T08:01:48.342Z,83.30
2023-04-16T08:04:17.404Z,83.30
2023-04-16T08:06:44.161Z,83.40
2023-04-16T08:09:11.202Z,83.30
2023-04-16T08:11:38.191Z,83.20
2023-04-16T08:14:04.822Z,83.30
2023-04-16T08:16:31.474Z,83.30
2023-04-16T08:18:58.314Z,83.30
2023-04-16T08:21:25.067Z,83.30
2023-04-16T08:23:52.121Z,83.40
2023-04-16T08:26:18.966Z,83.30
2023-04-16T08:28:45.594Z,83.40
2023-04-16T08:31:12.288Z,83.30
2023-04-16T08:33:40.701Z,83.30
2023-04-16T08:36:07.574Z,83.30
2023-04-16T08:38:34.245Z,83.30
2023-04-16T08:41:05.664Z,83.30
2023-04-16T08:43:37.725Z,83.30
2023-04-16T08:46:05.868Z,83.30
2023-04-16T08:48:34.160Z,83.30
2023-04-16T08:51:02.058Z,83.30
2023-04-16T08:53:53.617Z,83.30
2023-04-16T08:56:22.900Z,83.30
2023-04-16T08:58:51.484Z,83.30
2023-04-16T09:01:19.577Z,83.20
2023-04-16T09:03:48.243Z,83.30
2023-04-16T09:06:16.374Z,83.50
2023-04-16T09:08:48.895Z,83.40
2023-04-16T09:11:18.507Z,83.40
2023-04-16T09:13:46.536Z,83.30
2023-04-16T09:16:14.431Z,83.40
2023-04-16T09:18:41.588Z,83.40
2023-04-16T09:21:13.524Z,84.30
2023-04-16T09:23:40.951Z,84.70
2023-04-16T09:26:07.634Z,84.60
2023-04-16T09:28:48.616Z,84.70
2023-04-16T09:31:17.188Z,84.80
2023-04-16T09:34:01.089Z,84.60
2023-04-16T09:36:28.069Z,84.70
2023-04-16T09:38:57.431Z,84.60
2023-04-16T09:41:30.061Z,84.60
2023-04-16T09:43:59.708Z,84.50
2023-04-16T09:46:31.746Z,84.40
2023-04-16T09:48:58.584Z,84.50
2023-04-16T09:51:26.930Z,84.30
2023-04-16T09:53:54.782Z,84.20
2023-04-16T09:56:25.802Z,84.10
2023-04-16T09:58:58.067Z,84.00
2023-04-16T10:01:25.471Z,83.90
2023-04-16T10:03:54.705Z,83.90
2023-04-16T10:06:23.116Z,84.00
2023-04-16T10:08:50.623Z,84.00
2023-04-16T10:11:18.698Z,83.80
2023-04-16T10:13:45.898Z,83.80
2023-04-16T10:16:12.764Z,83.80
2023-04-16T10:18:44.349Z,83.90
2023-04-16T10:21:15.364Z,83.80
2023-04-16T10:23:43.514Z,83.70
2023-04-16T10:26:10.813Z,83.70
2023-04-16T10:28:37.938Z,83.70
2023-04-16T10:31:08.055Z,83.70
2023-04-16T10:33:36.732Z,84.00
2023-04-16T10:36:14.649Z,84.20
2023-04-16T10:38:46.603Z,84.50
2023-04-16T10:41:13.518Z,84.50
2023-04-16T10:43:48.201Z,84.50
2023-04-16T10:46:34.687Z,85.30
2023-04-16T10:49:02.953Z,85.00
2023-04-16T10:51:32.539Z,85.20
2023-04-16T10:54:23.217Z,84.60
2023-04-16T10:56:50.609Z,84.60
2023-04-16T10:59:21.547Z,84.60
2023-04-16T11:01:53.652Z,84.40
2023-04-16T11:04:20.743Z,84.40
2023-04-16T11:07:07.422Z,84.40
2023-04-16T11:09:59.351Z,84.50
2023-04-16T11:12:38.362Z,84.40
2023-04-16T11:15:06.488Z,84.40
2023-04-16T11:17:42.670Z,84.90
2023-04-16T11:20:20.486Z,85.10
2023-04-16T11:22:55.569Z,84.60
2023-04-16T11:25:26.148Z,84.90
2023-04-16T11:27:53.764Z,84.50
2023-04-16T11:30:30.456Z,84.50
2023-04-16T11:32:57.247Z,84.50
2023-04-16T11:35:24.097Z,84.40
2023-04-16T11:37:55.837Z,84.30
2023-04-16T11:40:22.738Z,84.50
2023-04-16T11:42:49.419Z,84.30
2023-04-16T11:45:16.377Z,84.30
2023-04-16T11:47:55.393Z,84.20
2023-04-16T11:50:27.201Z,84.10
2023-04-16T11:52:55.960Z,84.00
2023-04-16T11:55:23.651Z,83.90
2023-04-16T11:57:51.841Z,83.90
2023-04-16T12:00:19.312Z,83.80
2023-04-16T12:02:52.895Z,83.80
2023-04-16T12:05:33.644Z,83.80
2023-04-16T12:08:02.556Z,83.80
2023-04-16T12:10:31.021Z,83.70
2023-04-16T12:13:17.240Z,83.80
2023-04-16T12:15:51.768Z,83.70
2023-04-16T12:18:20.170Z,83.60
2023-04-16T12:20:47.388Z,83.60
2023-04-16T12:23:30.697Z,83.60
2023-04-16T12:26:02.293Z,83.60
2023-04-16T12:28:34.229Z,83.50
2023-04-16T12:31:01.805Z,83.50
2023-04-16T12:33:29.031Z,83.50
2023-04-16T12:35:55.745Z,83.50
2023-04-16T12:38:24.535Z,83.50
2023-04-16T12:40:51.984Z,83.50
2023-04-16T12:43:19.646Z,83.30
2023-04-16T12:45:46.502Z,83.30
2023-04-16T12:48:13.151Z,83.30
2023-04-16T12:50:40.145Z,83.40
2023-04-16T12:53:06.924Z,83.70
2023-04-16T12:55:33.688Z,83.90
2023-04-16T12:58:00.301Z,84.30
2023-04-16T13:00:27.021Z,84.20
2023-04-16T13:02:53.711Z,84.30
2023-04-16T13:05:20.546Z,84.80
2023-04-16T13:07:47.258Z,84.60
2023-04-16T13:10:13.930Z,84.10
2023-04-16T13:12:41.037Z,83.90
2023-04-16T13:15:08.380Z,84.20
2023-04-16T13:17:35.070Z,85.00
2023-04-16T13:20:01.734Z,85.60
2023-04-16T13:22:28.538Z,85.60
2023-04-16T13:24:55.599Z,84.70
2023-04-16T13:27:22.259Z,84.80
2023-04-16T13:29:48.923Z,84.20
2023-04-16T13:32:15.658Z,83.90
2023-04-16T13:34:42.990Z,83.80
2023-04-16T13:37:09.691Z,83.60
2023-04-16T13:39:36.622Z,83.80
2023-04-16T13:42:03.318Z,83.70
2023-04-16T13:44:29.940Z,83.80
2023-04-16T13:46:57.056Z,84.40
2023-04-16T13:49:23.783Z,84.50
2023-04-16T13:51:51.025Z,84.50
2023-04-16T13:54:17.673Z,84.00
2023-04-16T13:56:44.353Z,83.90
2023-04-16T13:59:11.270Z,83.80
2023-04-16T14:01:38.281Z,83.70
2023-04-16T14:04:06.862Z,83.50
2023-04-16T14:06:34.735Z,83.60
2023-04-16T14:09:01.757Z,83.70
2023-04-16T14:11:28.666Z,83.60
2023-04-16T14:13:55.953Z,83.60
2023-04-16T14:16:23.348Z,83.20
2023-04-16T14:18:52.538Z,83.50
2023-04-16T14:21:19.689Z,83.50
2023-04-16T14:23:46.973Z,83.30
2023-04-16T14:26:14.512Z,83.90
2023-04-16T14:28:42.213Z,84.00
2023-04-16T14:31:09.317Z,83.80
2023-04-16T14:33:36.988Z,83.90
2023-04-16T14:36:04.394Z,83.90
2023-04-16T14:38:32.119Z,83.70
2023-04-16T14:41:00.562Z,83.60
2023-04-16T14:43:27.748Z,83.40
2023-04-16T14:45:54.929Z,83.40
2023-04-16T14:48:22.298Z,83.70
2023-04-16T14:50:49.406Z,83.90
2023-04-16T14:53:16.882Z,83.60
2023-04-16T14:55:44.313Z,83.60
2023-04-16T14:58:11.381Z,83.50
2023-04-16T15:00:38.497Z,83.60
2023-04-16T15:03:06.104Z,83.60
2023-04-16T15:05:33.403Z,83.50
2023-04-16T15:08:00.823Z,83.30
2023-04-16T15:10:28.226Z,83.30
2023-04-16T15:12:55.459Z,83.20
2023-04-16T15:15:23.230Z,83.30
2023-04-16T15:17:52.004Z,83.30
2023-04-16T15:20:22.277Z,83.30
2023-04-16T15:22:51.630Z,83.30
2023-04-16T15:25:18.794Z,83.20
2023-04-16T15:27:45.611Z,83.20
2023-04-16T15:30:14.960Z,83.20
2023-04-16T15:32:43.566Z,83.20
2023-04-16T15:35:11.447Z,83.20
2023-04-16T15:37:38.786Z,83.20
2023-04-16T15:40:07.791Z,83.20
2023-04-16T15:42:34.905Z,83.20
2023-04-16T15:45:01.758Z,83.20
2023-04-16T15:47:28.788Z,83.20
2023-04-16T15:49:55.518Z,83.20
2023-04-16T15:52:22.220Z,83.20
2023-04-16T15:54:49.242Z,83.20
2023-04-16T15:57:15.874Z,83.20
2023-04-16T15:59:44.657Z,83.20
2023-04-16T16:02:14.702Z,83.20
2023-04-16T16:04:45.839Z,83.30
2023-04-16T16:07:12.909Z,83.50
2023-04-16T16:09:39.670Z,83.30
2023-04-16T16:12:06.457Z,83.50
2023-04-16T16:14:33.264Z,83.40
2023-04-16T16:16:59.901Z,83.80
2023-04-16T16:19:27.012Z,83.60
2023-04-16T16:21:53.715Z,83.50
2023-04-16T16:24:20.371Z,83.40
2023-04-16T16:26:47.119Z,83.40
2023-04-16T16:29:13.770Z,83.80
2023-04-16T16:31:40.551Z,83.80
2023-04-16T16:34:07.295Z,83.90
2023-04-16T16:36:36.765Z,83.60
2023-04-16T16:39:04.184Z,83.50
2023-04-16T16:41:31.369Z,83.30
2023-04-16T16:43:58.932Z,83.30
2023-04-16T16:46:25.862Z,83.30
2023-04-16T16:48:52.731Z,83.20
2023-04-16T16:51:19.477Z,83.20
2023-04-16T16:53:46.500Z,83.50
2023-04-16T16:56:13.136Z,83.20
2023-04-16T16:58:39.760Z,83.00
2023-04-16T17:01:06.518Z,83.10
2023-04-16T17:03:34.324Z,83.20
2023-04-16T17:06:01.254Z,83.20
2023-04-16T17:08:28.864Z,83.10
2023-04-16T17:10:55.749Z,83.20
2023-04-16T17:13:23.635Z,83.20
2023-04-16T17:15:50.391Z,83.20
2023-04-16T17:18:18.690Z,83.20
2023-04-16T17:20:45.353Z,83.20
2023-04-16T17:23:12.045Z,83.20
2023-04-16T17:25:38.676Z,83.20
2023-04-16T17:28:05.438Z,83.20
2023-04-16T17:30:32.106Z,83.10
2023-04-16T17:32:58.905Z,83.10
2023-04-16T17:35:25.772Z,83.20
2023-04-16T17:37:52.439Z,83.20
2023-04-16T17:40:19.160Z,83.20
2023-04-16T17:42:46.102Z,83.20
2023-04-16T17:45:13.598Z,83.20
2023-04-16T17:47:40.589Z,83.20
2023-04-16T17:50:08.637Z,83.20
2023-04-16T17:52:35.421Z,83.10
2023-04-16T17:55:03.822Z,83.10
2023-04-16T17:57:31.294Z,83.10
2023-04-16T17:59:58.009Z,83.00
2023-04-16T18:02:24.991Z,83.00
2023-04-16T18:04:51.926Z,83.30
2023-04-16T18:07:19.269Z,83.30
2023-04-16T18:09:45.955Z,83.30
2023-04-16T18:12:12.597Z,83.10
2023-04-16T18:14:40.590Z,83.10
2023-04-16T18:17:07.289Z,83.60
2023-04-16T18:19:35.356Z,83.60
2023-04-16T18:22:02.262Z,83.50
2023-04-16T18:24:29.061Z,83.60
2023-04-16T18:26:56.691Z,83.50
2023-04-16T18:29:25.190Z,83.40
2023-04-16T18:31:52.337Z,83.30
2023-04-16T18:34:19.121Z,83.30
2023-04-16T18:36:45.839Z,83.20
2023-04-16T18:39:12.511Z,83.30
2023-04-16T18:41:40.609Z,83.20
2023-04-16T18:44:07.407Z,83.20
2023-04-16T18:46:34.114Z,83.30
2023-04-16T18:49:00.802Z,83.20
2023-04-16T18:51:27.599Z,83.20
2023-04-16T18:53:54.233Z,83.20
2023-04-16T18:56:20.905Z,83.10
2023-04-16T18:58:47.811Z,83.20
2023-04-16T19:01:14.610Z,83.20
2023-04-16T19:03:41.432Z,83.10
2023-04-16T19:06:08.290Z,83.20
2023-04-16T19:08:35.002Z,83.10
2023-04-16T19:11:01.733Z,83.10
2023-04-16T19:13:30.206Z,83.20
2023-04-16T19:16:01.367Z,83.20
2023-04-16T19:18:28.129Z,83.10
2023-04-16T19:21:01.515Z,83.30
2023-04-16T19:23:28.716Z,83.40
2023-04-16T19:25:58.755Z,83.30
2023-04-16T19:28:25.707Z,83.10
2023-04-16T19:30:53.506Z,83.30
2023-04-16T19:33:20.455Z,83.10
2023-04-16T19:35:47.280Z,83.10
2023-04-16T19:38:14.001Z,83.20
2023-04-16T19:40:43.176Z,83.10
2023-04-16T19:43:09.827Z,83.20
2023-04-16T19:45:41.930Z,83.10
2023-04-16T19:48:08.734Z,83.10
2023-04-16T19:50:38.134Z,83.10
2023-04-16T19:53:04.752Z,83.10
2023-04-16T19:55:31.500Z,83.20
2023-04-16T19:57:59.548Z,83.10
2023-04-16T20:00:26.189Z,83.10
2023-04-16T20:02:52.862Z,83.20
2023-04-16T20:05:19.691Z,83.20
2023-04-16T20:07:46.310Z,83.40
2023-04-16T20:10:12.987Z,83.30
2023-04-16T20:12:39.625Z,83.20
2023-04-16T20:15:07.029Z,83.20
2023-04-16T20:17:33.735Z,83.10
2023-04-16T20:20:01.433Z,83.10
2023-04-16T20:22:28.118Z,83.10
2023-04-16T20:24:55.018Z,83.10
2023-04-16T20:27:21.844Z,83.10
2023-04-16T20:29:48.495Z,83.20
2023-04-16T20:32:15.117Z,83.10
2023-04-16T20:34:42.812Z,83.10
2023-04-16T20:37:09.440Z,83.20
2023-04-16T20:39:36.086Z,83.20
2023-04-16T20:42:04.209Z,83.20
2023-04-16T20:44:40.388Z,83.10
2023-04-16T20:47:08.092Z,83.10
2023-04-16T20:49:35.221Z,83.10
2023-04-16T20:52:02.635Z,83.20
2023-04-16T20:54:30.274Z,83.60
2023-04-16T20:56:57.816Z,83.50
2023-04-16T20:59:24.659Z,83.50
2023-04-16T21:01:52.119Z,83.30
2023-04-16T21:04:18.967Z,83.30
2023-04-16T21:06:46.072Z,83.20
2023-04-16T21:09:13.352Z,83.10
2023-04-16T21:11:40.407Z,83.20
2023-04-16T21:14:07.104Z,83.10
2023-04-16T21:16:33.773Z,83.10
2023-04-16T21:19:00.560Z,83.10
2023-04-16T21:21:27.488Z,83.20
2023-04-16T21:23:54.178Z,83.20
2023-04-16T21:26:21.215Z,83.30
2023-04-16T21:28:48.186Z,83.40
2023-04-16T21:31:15.038Z,83.50
2023-04-16T21:33:41.728Z,83.30
2023-04-16T21:36:08.502Z,83.10
2023-04-16T21:38:35.254Z,83.10
2023-04-16T21:41:02.292Z,83.20
2023-04-16T21:43:31.800Z,83.10
2023-04-16T21:45:59.406Z,83.20
2023-04-16T21:48:26.961Z,83.30
2023-04-16T21:51:06.385Z,83.20
2023-04-16T21:53:33.883Z,83.20
2023-04-16T21:56:00.668Z,83.10
2023-04-16T21:58:27.366Z,83.20
2023-04-16T22:00:54.284Z,83.20
2023-04-16T22:03:26.100Z,83.50
2023-04-16T22:06:03.231Z,83.50
2023-04-16T22:08:30.231Z,83.50
2023-04-16T22:11:02.006Z,83.40
2023-04-16T22:13:32.722Z,83.30
2023-04-16T22:16:02.688Z,83.30
2023-04-16T22:18:32.624Z,83.30
2023-04-16T22:20:59.417Z,83.40
2023-04-16T22:23:26.060Z,83.40
2023-04-16T22:25:54.769Z,83.30
2023-04-16T22:28:21.548Z,83.40
2023-04-16T22:30:48.497Z,83.40
2023-04-16T22:33:15.552Z,83.40
2023-04-16T22:35:42.263Z,83.50
2023-04-16T22:38:09.984Z,83.40
2023-04-16T22:40:36.687Z,83.30
2023-04-16T22:43:03.378Z,83.50
2023-04-16T22:45:30.082Z,83.30
2023-04-16T22:47:56.748Z,83.30
2023-04-16T22:50:23.479Z,83.30
2023-04-16T22:52:50.154Z,83.30
2023-04-16T22:55:16.828Z,83.40
2023-04-16T22:57:43.485Z,83.30
2023-04-16T23:00:15.710Z,83.30
2023-04-16T23:02:42.917Z,83.30
2023-04-16T23:05:09.867Z,83.30
2023-04-16T23:07:36.496Z,83.30
2023-04-16T23:10:03.247Z,83.30
2023-04-16T23:12:29.869Z,83.30
2023-04-16T23:14:56.841Z,83.30
2023-04-16T23:17:23.565Z,83.30
2023-04-16T23:19:50.328Z,83.30
2023-04-16T23:22:16.953Z,83.30
2023-04-16T23:24:43.561Z,83.30
2023-04-16T23:27:10.613Z,83.30
2023-04-16T23:29:37.241Z,83.30
2023-04-16T23:32:04.035Z,83.30
2023-04-16T23:34:30.755Z,83.30
2023-04-16T23:36:57.385Z,83.20
2023-04-16T23:39:24.003Z,83.30
2023-04-16T23:41:50.718Z,83.30
2023-04-16T23:44:17.347Z,83.20
2023-04-16T23:46:44.087Z,83.30
2023-04-16T23:49:11.110Z,83.30
2023-04-16T23:51:38.108Z,83.20
2023-04-16T23:54:05.323Z,83.20
2023-04-16T23:56:31.997Z,83.20
2023-04-16T23:58:58.626Z,83.30
